Time;durP1;ratioP1;P1;durP2;ratioP2;P2;SDS_P1;SDS_P2;PMS_P1;PMS_P2;Temp;Humidity;BMP_temperature;BMP_pressure;BME280_temperature;BME280_humidity;BME280_pressure;Samples;Min_cycle;Max_cycle;Signal;HPM_P1;HPM_P2
2020/12/15 00:01:38;;;;;;;94.03;41.63;;;;;;;-0.64;84.61;98921.97;261936;1101;23500;-79
2020/12/15 00:06:41;;;;;;;87.53;39.37;;;;;;;-0.52;85.23;98916.83;261592;1101;23419;-79
2020/12/15 00:11:43;;;;;;;87.87;40.37;;;;;;;-0.45;83.99;98908.89;261823;1101;23353;-79
2020/12/15 00:16:45;;;;;;;76.40;32.60;;;;;;;-0.41;84.58;98915.34;261605;1101;26804;-79
2020/12/15 00:21:48;;;;;;;65.50;30.30;;;;;;;-0.45;84.63;98909.69;261738;1101;27842;-78
2020/12/15 00:26:50;;;;;;;63.40;27.63;;;;;;;-0.43;84.58;98906.88;261631;1101;23651;-79
2020/12/15 00:31:55;;;;;;;57.93;27.80;;;;;;;-0.39;85.09;98922.02;262008;1101;23408;-79
2020/12/15 00:36:59;;;;;;;52.37;24.67;;;;;;;-0.31;85.28;98926.20;261896;1101;23353;-79
2020/12/15 00:42:01;;;;;;;61.90;26.20;;;;;;;-0.24;84.68;98931.42;261592;1101;23365;-79
2020/12/15 00:47:04;;;;;;;57.20;26.33;;;;;;;-0.14;84.78;98930.95;261749;1101;23365;-79
2020/12/15 00:52:06;;;;;;;36.47;17.70;;;;;;;-0.01;85.01;98925.59;261744;1101;23520;-80
2020/12/15 00:57:10;;;;;;;30.37;14.80;;;;;;;0.07;86.25;98930.59;261810;1103;23419;-79
2020/12/15 01:02:12;;;;;;;28.07;14.50;;;;;;;0.13;85.08;98937.62;261734;1101;23418;-79
2020/12/15 01:07:14;;;;;;;21.50;11.43;;;;;;;0.18;84.90;98942.23;261664;1101;23392;-79
2020/12/15 01:12:17;;;;;;;20.57;10.40;;;;;;;0.21;86.60;98933.09;261917;1101;23350;-79
2020/12/15 01:17:20;;;;;;;22.80;11.77;;;;;;;0.19;85.64;98943.05;261850;1101;23471;-79
2020/12/15 01:22:22;;;;;;;19.43;9.10;;;;;;;0.17;85.85;98935.38;261920;1101;25140;-79
2020/12/15 01:27:25;;;;;;;21.33;9.50;;;;;;;0.11;84.78;98937.04;261591;1102;23458;-79
2020/12/15 01:32:35;;;;;;;19.15;10.50;;;;;;;0.03;85.51;98929.41;261776;1101;23392;-79
2020/12/15 01:37:38;;;;;;;24.53;12.77;;;;;;;-0.03;85.15;98940.78;261741;1102;23481;-79
2020/12/15 01:42:43;;;;;;;19.63;10.30;;;;;;;-0.07;85.27;98929.06;261526;1102;26369;-78
2020/12/15 01:47:45;;;;;;;24.80;12.17;;;;;;;-0.13;84.51;98922.83;261327;1101;23365;-78
2020/12/15 01:52:51;;;;;;;34.73;15.90;;;;;;;-0.21;85.53;98912.56;261607;1101;23568;-79
2020/12/15 01:57:53;;;;;;;32.67;15.67;;;;;;;-0.24;85.02;98911.19;261618;1101;23408;-78
2020/12/15 02:03:07;;;;;;;28.07;12.70;;;;;;;-0.29;84.82;98908.38;261805;1101;23388;-79
2020/12/15 02:08:42;;;;;;;35.33;17.43;;;;;;;-0.37;84.42;98903.37;261623;1102;23350;-78
2020/12/15 02:13:45;;;;;;;29.73;13.53;;;;;;;-0.41;85.73;98896.92;261882;1101;23360;-79
2020/12/15 02:18:48;;;;;;;31.75;16.30;;;;;;;-0.47;84.58;98890.69;261599;1101;23414;-79
2020/12/15 02:23:50;;;;;;;29.77;13.73;;;;;;;-0.54;84.65;98898.62;261414;1101;23353;-78
2020/12/15 02:29:04;;;;;;;39.87;18.43;;;;;;;-0.61;84.64;98894.44;261568;1101;23318;-78
2020/12/15 02:34:07;;;;;;;32.20;17.57;;;;;;;-0.60;85.75;98891.59;261976;1101;23368;-78
2020/12/15 02:39:15;;;;;;;34.60;17.43;;;;;;;-0.60;84.76;98891.59;261628;1101;23353;-78
2020/12/15 02:44:40;;;;;;;30.87;15.63;;;;;;;-0.63;85.82;98896.45;261555;1101;23379;-78
2020/12/15 02:49:47;;;;;;;33.07;16.60;;;;;;;-0.65;85.06;98899.30;261557;1101;23373;-79
2020/12/15 02:54:53;;;;;;;30.70;15.97;;;;;;;-0.65;85.47;98894.04;261797;1101;23417;-80
2020/12/15 02:59:56;;;;;;;32.00;16.80;;;;;;;-0.67;85.01;98890.83;261655;1101;23506;-79
2020/12/15 03:05:00;;;;;;;33.97;17.60;;;;;;;-0.67;85.00;98890.83;262136;1101;23420;-78
2020/12/15 03:10:05;;;;;;;31.30;16.37;;;;;;;-0.72;85.49;98890.64;261548;1102;24812;-78
2020/12/15 03:15:14;;;;;;;30.17;16.53;;;;;;;-0.78;84.61;98889.67;261545;1101;24723;-79
2020/12/15 03:20:17;;;;;;;30.13;15.70;;;;;;;-0.84;84.85;98887.86;261695;1102;23464;-79
2020/12/15 03:25:19;;;;;;;29.30;15.60;;;;;;;-0.89;85.19;98880.61;261989;1101;23460;-78
2020/12/15 03:30:27;;;;;;;29.10;15.33;;;;;;;-0.92;84.61;98883.67;261803;1101;23411;-78
2020/12/15 03:35:32;;;;;;;29.77;15.00;;;;;;;-0.92;84.63;98878.41;261751;1101;23506;-79
2020/12/15 03:40:38;;;;;;;28.47;15.10;;;;;;;-0.94;85.34;98879.63;262163;1101;23614;-80
2020/12/15 03:46:01;;;;;;;31.40;15.93;;;;;;;-0.93;85.08;98883.89;261797;1101;23379;-79
2020/12/15 03:51:07;;;;;;;31.30;15.33;;;;;;;-0.96;84.62;98885.11;261719;1101;23342;-80
2020/12/15 03:56:28;;;;;;;31.00;14.93;;;;;;;-0.93;85.54;98874.16;261901;1101;23422;-79
2020/12/15 04:01:31;;;;;;;29.60;15.00;;;;;;;-0.90;85.20;98870.31;261449;1101;26407;-79
2020/12/15 04:06:36;;;;;;;30.73;15.77;;;;;;;-0.92;85.65;98870.52;261560;1101;23368;-78
2020/12/15 04:11:45;;;;;;;35.13;15.70;;;;;;;-0.94;84.81;98879.63;261744;1101;23354;-80
2020/12/15 04:16:50;;;;;;;33.40;16.10;;;;;;;-0.98;85.94;98879.27;261692;1101;23353;-78
2020/12/15 04:21:53;;;;;;;31.60;15.27;;;;;;;-1.00;85.30;98883.91;261626;1102;23355;-79
2020/12/15 04:27:04;;;;;;;27.20;13.97;;;;;;;-1.04;84.78;98890.61;261627;1101;23386;-78
2020/12/15 04:32:09;;;;;;;30.23;15.17;;;;;;;-1.05;85.70;98895.07;261520;1101;23449;-78
2020/12/15 04:37:34;;;;;;;30.27;14.80;;;;;;;-1.05;85.11;98905.59;261727;1101;23408;-78
2020/12/15 04:42:40;;;;;;;34.03;15.47;;;;;;;-1.07;85.02;98901.55;261664;1101;23494;-78
2020/12/15 04:47:45;;;;;;;39.47;17.33;;;;;;;-1.08;85.61;98911.27;261707;1102;23348;-79
2020/12/15 04:52:56;;;;;;;38.10;18.95;;;;;;;-1.07;85.00;98917.33;261493;1101;23572;-78
2020/12/15 04:58:20;;;;;;;43.27;20.30;;;;;;;-1.11;85.36;98916.13;261583;1102;23402;-79
2020/12/15 05:03:30;;;;;;;52.27;25.53;;;;;;;-1.22;84.32;98907.88;261865;1101;26874;-79
2020/12/15 05:08:36;;;;;;;58.90;25.97;;;;;;;-1.31;85.15;98913.58;261660;1101;23403;-78
2020/12/15 05:13:44;;;;;;;56.40;25.07;;;;;;;-1.47;84.20;98914.82;261652;1101;23626;-79
2020/12/15 05:18:48;;;;;;;59.77;25.80;;;;;;;-1.58;84.39;98911.00;261707;1102;23347;-79
2020/12/15 05:24:08;;;;;;;56.20;25.00;;;;;;;-1.69;84.25;98906.38;261591;1103;23572;-79
2020/12/15 05:29:19;;;;;;;58.73;26.43;;;;;;;-1.84;84.41;98907.42;261621;1103;24012;-79
2020/12/15 05:34:40;;;;;;;57.23;24.67;;;;;;;-1.96;83.63;98916.92;261768;1101;23357;-79
2020/12/15 05:40:03;;;;;;;64.30;28.97;;;;;;;-2.07;84.15;98913.08;261736;1101;23510;-78
2020/12/15 05:45:20;;;;;;;61.83;27.87;;;;;;;-2.14;83.63;98915.72;261646;1102;23354;-78
2020/12/15 05:50:25;;;;;;;71.83;32.13;;;;;;;-2.20;84.05;98923.59;261830;1101;26670;-79
2020/12/15 05:55:28;;;;;;;71.75;30.90;;;;;;;-2.21;84.55;98919.34;261764;1101;25016;-78
2020/12/15 06:00:32;;;;;;;78.47;30.10;;;;;;;-2.20;84.92;98913.89;261636;1101;23353;-79
2020/12/15 06:05:35;;;;;;;67.20;29.50;;;;;;;-2.24;84.16;98910.05;261557;1100;27785;-81
2020/12/15 06:10:37;;;;;;;65.73;28.57;;;;;;;-2.29;84.10;98908.04;261921;1102;23411;-79
2020/12/15 06:15:40;;;;;;;75.93;33.13;;;;;;;-2.32;84.24;98918.12;261772;1102;23367;-79
2020/12/15 06:20:43;;;;;;;80.03;33.83;;;;;;;-2.31;84.38;98914.49;261838;1101;23438;-79
2020/12/15 06:25:48;;;;;;;78.37;33.63;;;;;;;-2.33;84.29;98906.03;262112;1101;23558;-78
2020/12/15 06:30:57;;;;;;;89.73;36.83;;;;;;;-2.33;84.62;98912.07;261852;1102;23419;-79
2020/12/15 06:36:00;;;;;;;93.23;38.73;;;;;;;-2.36;84.15;98922.18;261906;1101;23505;-78
2020/12/15 06:41:02;;;;;;;90.73;35.60;;;;;;;-2.33;84.99;98933.06;261950;1102;23347;-78
2020/12/15 06:46:09;;;;;;;81.73;32.93;;;;;;;-2.33;84.57;98917.32;262074;1102;23460;-79
2020/12/15 06:51:12;;;;;;;93.80;37.17;;;;;;;-2.34;84.40;98920.15;262275;1101;23357;-78
2020/12/15 06:56:25;;;;;;;73.93;31.87;;;;;;;-2.34;84.04;98926.20;263122;1101;23370;-78
2020/12/15 07:01:28;;;;;;;83.60;35.37;;;;;;;-2.28;84.39;98927.20;261953;1104;23632;-78
2020/12/15 07:06:32;;;;;;;76.27;34.93;;;;;;;-2.24;85.01;98926.63;262015;1101;23408;-78
2020/12/15 07:11:34;;;;;;;73.87;33.93;;;;;;;-2.17;84.20;98928.44;261914;1096;23462;-77
2020/12/15 07:16:36;;;;;;;62.03;29.70;;;;;;;-2.11;84.58;98917.94;262165;1101;23394;-77
2020/12/15 07:21:40;;;;;;;67.27;30.63;;;;;;;-1.97;85.30;98918.75;261656;1102;26848;-77
2020/12/15 07:26:45;;;;;;;62.53;29.60;;;;;;;-1.87;84.95;98920.14;262080;1096;23357;-77
2020/12/15 07:31:48;;;;;;;62.53;29.00;;;;;;;-1.83;84.78;98929.22;261731;1104;23359;-77
2020/12/15 07:36:57;;;;;;;49.87;22.27;;;;;;;-1.70;85.05;98917.92;262018;1102;24072;-76
2020/12/15 07:42:04;;;;;;;75.05;32.95;;;;;;;-1.58;84.03;98926.77;261936;1101;23455;-77
2020/12/15 07:47:19;;;;;;;86.07;36.80;;;;;;;-1.48;85.12;98926.34;261780;1101;23376;-77
2020/12/15 07:52:38;;;;;;;89.33;38.03;;;;;;;-1.36;84.06;98940.46;261786;1103;23481;-76
2020/12/15 07:57:42;;;;;;;87.33;40.83;;;;;;;-1.19;84.67;98927.66;261918;1101;27547;-77
2020/12/15 08:02:45;;;;;;;95.25;41.80;;;;;;;-1.07;84.99;98931.27;261384;1104;23351;-75
2020/12/15 08:07:49;;;;;;;93.80;41.50;;;;;;;-0.84;84.65;98929.16;261618;1101;26845;-77
2020/12/15 08:12:52;;;;;;;94.80;40.17;;;;;;;-0.21;85.72;98944.16;261864;1101;23358;-77
2020/12/15 08:17:55;;;;;;;90.07;38.33;;;;;;;-0.05;84.31;98942.84;261585;1101;23451;-77
2020/12/15 08:23:03;;;;;;;83.70;37.40;;;;;;;0.05;84.02;98935.25;261515;1102;24288;-77
2020/12/15 08:28:08;;;;;;;70.73;32.13;;;;;;;0.19;83.57;98949.12;261890;1101;23351;-76
2020/12/15 08:33:30;;;;;;;67.10;29.93;;;;;;;0.28;84.52;98939.11;261488;1101;23397;-77
2020/12/15 08:38:33;;;;;;;65.10;30.45;;;;;;;0.43;84.07;98933.50;261370;1103;23377;-77
2020/12/15 08:43:35;;;;;;;69.77;32.13;;;;;;;0.56;83.81;98937.83;261826;1101;23420;-78
2020/12/15 08:48:37;;;;;;;67.57;32.47;;;;;;;0.70;83.61;98930.58;261527;1101;23435;-77
2020/12/15 08:53:41;;;;;;;78.10;38.35;;;;;;;0.83;83.85;98936.52;261716;1101;23555;-77
2020/12/15 08:58:43;;;;;;;67.73;32.50;;;;;;;1.01;83.54;98932.27;262186;1101;23356;-77
2020/12/15 09:03:47;;;;;;;69.33;34.57;;;;;;;1.14;83.07;98936.57;261794;1102;26801;-76
2020/12/15 09:08:49;;;;;;;71.87;34.17;;;;;;;1.28;83.63;98939.84;262291;1101;23400;-76
2020/12/15 09:13:53;;;;;;;66.00;31.37;;;;;;;1.41;83.03;98939.66;264481;1102;23457;-75
2020/12/15 09:18:56;;;;;;;70.47;33.80;;;;;;;1.52;83.08;98951.30;263470;1101;23363;-76
2020/12/15 09:24:00;;;;;;;61.67;31.53;;;;;;;1.64;83.38;98938.94;262045;1101;24995;-76
2020/12/15 09:29:11;;;;;;;54.27;28.33;;;;;;;1.73;82.57;98941.25;263036;1101;23389;-76
2020/12/15 09:34:15;;;;;;;72.20;32.77;;;;;;;1.80;82.91;98940.11;263107;1101;23359;-77
2020/12/15 09:39:19;;;;;;;77.25;35.30;;;;;;;1.94;82.67;98934.63;262059;1101;26418;-76
2020/12/15 09:44:22;;;;;;;79.00;39.20;;;;;;;2.11;82.09;98935.55;262209;1101;23415;-76
2020/12/15 09:49:27;;;;;;;81.47;37.47;;;;;;;2.27;82.54;98935.91;262208;1101;23964;-75
2020/12/15 09:54:32;;;;;;;65.83;34.77;;;;;;;2.43;81.95;98927.28;262391;1101;23408;-76
2020/12/15 09:59:34;;;;;;;75.97;35.07;;;;;;;2.53;81.86;98932.81;261915;1101;23493;-76
2020/12/15 10:04:40;;;;;;;82.03;37.40;;;;;;;2.63;81.40;98926.94;262134;1101;25222;-75
2020/12/15 10:09:42;;;;;;;75.43;37.17;;;;;;;2.77;81.66;98916.09;262407;1101;23460;-76
2020/12/15 10:14:45;;;;;;;65.77;33.23;;;;;;;2.93;81.64;98910.08;262516;1101;23970;-75
2020/12/15 10:19:48;;;;;;;74.67;35.73;;;;;;;3.01;81.30;98903.63;262444;1101;23903;-76
2020/12/15 10:24:50;;;;;;;68.93;33.00;;;;;;;3.02;81.33;98903.38;262072;1101;23378;-75
2020/12/15 10:29:53;;;;;;;82.77;39.33;;;;;;;3.05;80.95;98907.38;262206;1101;23965;-75
2020/12/15 10:34:55;;;;;;;77.73;38.80;;;;;;;3.17;81.13;98910.00;262042;1101;23436;-78
2020/12/15 10:40:02;;;;;;;65.63;34.33;;;;;;;3.34;81.08;98907.39;262767;1101;23350;-76
2020/12/15 10:45:07;;;;;;;71.85;38.95;;;;;;;3.50;81.32;98908.45;262172;1101;23815;-77
2020/12/15 10:50:11;;;;;;;66.80;33.90;;;;;;;3.60;80.94;98895.41;262360;1101;23325;-79
2020/12/15 10:55:14;;;;;;;83.00;40.30;;;;;;;3.62;80.34;98889.86;262305;1096;23451;-77
2020/12/15 11:00:16;;;;;;;85.60;40.40;;;;;;;3.62;80.37;98890.66;262440;1101;25055;-78
2020/12/15 11:05:20;;;;;;;84.30;41.33;;;;;;;3.66;80.08;98883.05;264213;1102;23431;-78
2020/12/15 11:10:23;;;;;;;87.10;43.05;;;;;;;3.66;79.75;98877.74;264832;1096;23516;-79
2020/12/15 11:15:27;;;;;;;82.23;41.87;;;;;;;3.69;79.73;98870.10;262359;1101;23409;-77
2020/12/15 11:20:29;;;;;;;85.63;44.40;;;;;;;3.75;80.27;98876.31;262182;1101;23417;-77
2020/12/15 11:25:34;;;;;;;72.23;38.27;;;;;;;3.90;80.37;98868.59;262364;1101;23344;-78
2020/12/15 11:30:37;;;;;;;86.70;40.93;;;;;;;4.20;80.20;98864.78;261939;1102;23350;-77
2020/12/15 11:35:40;;;;;;;86.25;40.80;;;;;;;4.52;80.83;98856.19;264159;1103;23350;-77
2020/12/15 11:40:42;;;;;;;72.53;36.07;;;;;;;4.80;80.21;98851.73;262098;1101;26843;-78
2020/12/15 11:45:47;;;;;;;66.80;32.70;;;;;;;5.03;80.14;98863.92;262502;1101;23416;-76
2020/12/15 11:50:50;;;;;;;50.35;27.30;;;;;;;5.16;79.39;98860.06;262257;1103;23360;-76
2020/12/15 11:55:53;;;;;;;49.93;27.53;;;;;;;5.21;78.66;98862.78;262524;1101;23428;-77
2020/12/15 12:01:14;;;;;;;61.28;31.68;;;;;;;5.21;78.85;98854.02;262368;1101;23894;-77
2020/12/15 12:06:17;;;;;;;61.17;32.57;;;;;;;5.16;78.56;98848.65;262429;1101;23444;-78
2020/12/15 12:11:19;;;;;;;33.10;18.20;;;;;;;5.05;77.83;98843.25;262580;1101;23358;-78
2020/12/15 12:16:21;;;;;;;27.67;14.43;;;;;;;4.99;77.08;98848.75;262561;1102;26418;-78
2020/12/15 12:21:24;;;;;;;23.80;13.75;;;;;;;4.93;76.92;98856.64;262283;1102;23659;-78
2020/12/15 12:26:26;;;;;;;30.00;14.53;;;;;;;4.96;77.35;98844.73;262930;1103;23338;-77
2020/12/15 12:31:29;;;;;;;19.63;11.27;;;;;;;4.94;77.10;98850.30;262752;1101;23310;-77
2020/12/15 12:36:34;;;;;;;24.80;12.97;;;;;;;4.92;77.38;98849.73;262220;1101;23359;-76
2020/12/15 12:41:36;;;;;;;18.33;9.80;;;;;;;4.84;76.29;98847.54;263866;1104;23353;-75
2020/12/15 12:46:50;;;;;;;19.20;11.10;;;;;;;4.66;75.76;98850.48;263938;1102;23370;-76
2020/12/15 12:51:53;;;;;;;17.20;9.67;;;;;;;4.55;76.42;98857.55;262692;1102;26305;-77
2020/12/15 12:56:57;;;;;;;18.50;10.10;;;;;;;4.47;75.83;98850.80;262672;1101;23559;-77
2020/12/15 13:02:00;;;;;;;19.90;8.67;;;;;;;4.43;76.19;98847.03;262439;1101;23365;-77
2020/12/15 13:07:03;;;;;;;17.47;9.00;;;;;;;4.39;75.96;98852.05;262890;1101;24654;-79
2020/12/15 13:12:05;;;;;;;17.60;9.10;;;;;;;4.34;75.87;98845.84;262725;1096;23325;-78
2020/12/15 13:17:15;;;;;;;21.27;10.85;;;;;;;4.33;76.15;98844.27;262753;1102;23369;-79
2020/12/15 13:22:17;;;;;;;20.33;10.80;;;;;;;4.45;76.62;98850.27;262456;1101;24050;-78
2020/12/15 13:27:19;;;;;;;14.87;9.13;;;;;;;4.61;76.39;98844.07;262360;1101;23393;-79
2020/12/15 13:32:21;;;;;;;18.27;10.20;;;;;;;4.69;76.29;98845.50;262788;1102;23374;-79
2020/12/15 13:37:24;;;;;;;16.73;9.30;;;;;;;4.75;76.09;98844.50;262748;1096;26830;-78
2020/12/15 13:42:26;;;;;;;17.87;10.50;;;;;;;4.76;75.61;98846.11;262514;1102;23474;-77
2020/12/15 13:47:29;;;;;;;17.73;9.87;;;;;;;4.69;75.16;98853.47;263584;1101;23330;-78
2020/12/15 13:52:31;;;;;;;21.53;11.20;;;;;;;4.57;75.43;98842.17;262750;1101;23826;-78
2020/12/15 13:57:34;;;;;;;22.53;12.07;;;;;;;4.48;75.24;98851.59;262879;1101;23951;-79
2020/12/15 14:02:37;;;;;;;20.83;12.27;;;;;;;4.46;75.80;98841.23;262351;1101;23334;-79
2020/12/15 14:07:39;;;;;;;22.20;11.97;;;;;;;4.41;75.75;98843.84;262622;1101;23400;-77
2020/12/15 14:12:41;;;;;;;25.70;13.00;;;;;;;4.31;75.88;98844.52;262476;1101;23408;-78
2020/12/15 14:17:46;;;;;;;29.73;14.93;;;;;;;4.19;76.15;98851.77;262060;1103;23394;-77
2020/12/15 14:22:50;;;;;;;41.53;24.20;;;;;;;4.01;76.07;98858.14;262459;1101;23379;-78
2020/12/15 14:27:53;;;;;;;53.85;28.75;;;;;;;3.85;75.82;98857.13;262681;1101;23361;-76
2020/12/15 14:32:55;;;;;;;60.55;31.95;;;;;;;3.72;76.12;98852.92;262064;1101;23526;-77
2020/12/15 14:37:57;;;;;;;67.47;34.60;;;;;;;3.63;76.30;98852.53;262542;1101;23351;-77
2020/12/15 14:43:05;;;;;;;63.70;33.17;;;;;;;3.48;76.53;98850.42;262280;1099;23325;-76
2020/12/15 14:48:07;;;;;;;59.63;30.77;;;;;;;3.37;76.29;98838.88;262399;1101;23404;-76
2020/12/15 14:53:11;;;;;;;47.00;23.77;;;;;;;3.22;76.61;98844.70;262885;1102;23446;-76
2020/12/15 14:58:16;;;;;;;39.57;21.03;;;;;;;3.09;76.72;98844.98;262255;1101;23412;-77
2020/12/15 15:03:19;;;;;;;41.47;21.87;;;;;;;2.98;76.45;98854.61;262678;1100;25025;-77
2020/12/15 15:08:24;;;;;;;42.30;22.07;;;;;;;2.87;76.90;98850.17;262139;1102;23343;-77
2020/12/15 15:13:27;;;;;;;46.60;23.50;;;;;;;2.80;77.61;98849.47;261672;1101;23358;-78
2020/12/15 15:18:30;;;;;;;52.77;23.93;;;;;;;2.68;76.87;98849.53;261699;1101;26444;-77
2020/12/15 15:23:34;;;;;;;54.20;24.20;;;;;;;2.54;77.34;98859.56;261500;1101;23365;-78
2020/12/15 15:28:42;;;;;;;58.87;27.80;;;;;;;2.44;77.16;98862.80;261863;1102;28190;-77
2020/12/15 15:33:44;;;;;;;66.37;31.27;;;;;;;2.42;77.41;98864.06;261839;1101;23358;-78
2020/12/15 15:38:47;;;;;;;67.57;32.83;;;;;;;2.40;77.98;98864.30;261822;1097;23597;-77
2020/12/15 15:43:59;;;;;;;77.07;34.10;;;;;;;2.38;77.45;98863.74;261388;1096;23396;-77
2020/12/15 15:49:01;;;;;;;83.58;35.85;;;;;;;2.32;77.59;98868.12;261640;1101;23421;-78
2020/12/15 15:54:03;;;;;;;92.47;41.60;;;;;;;2.21;77.40;98868.91;261985;1096;23478;-78
2020/12/15 15:59:14;;;;;;;93.20;42.50;;;;;;;2.19;77.85;98863.86;261349;1101;23447;-78
2020/12/15 16:04:17;;;;;;;116.95;49.27;;;;;;;2.20;78.36;98865.47;261301;1101;23357;-77
2020/12/15 16:09:20;;;;;;;114.57;50.70;;;;;;;2.19;78.42;98863.06;260974;1104;23552;-77
2020/12/15 16:14:22;;;;;;;112.27;51.53;;;;;;;2.15;78.05;98865.34;261556;1101;23365;-78
2020/12/15 16:19:24;;;;;;;135.57;57.00;;;;;;;2.07;78.10;98860.44;260916;1104;23902;-77
2020/12/15 16:24:26;;;;;;;139.53;61.13;;;;;;;2.01;78.33;98861.34;261446;1101;23362;-77
2020/12/15 16:29:29;;;;;;;154.27;65.63;;;;;;;1.98;78.52;98859.95;261221;1104;23555;-78
2020/12/15 16:34:31;;;;;;;154.30;66.40;;;;;;;1.90;78.17;98868.22;261444;1101;23361;-77
2020/12/15 16:39:34;;;;;;;152.50;63.17;;;;;;;1.79;77.99;98869.84;261176;1104;25476;-78
2020/12/15 16:44:36;;;;;;;139.35;57.10;;;;;;;1.71;78.84;98876.25;261281;1103;23402;-78
2020/12/15 16:49:38;;;;;;;114.97;52.70;;;;;;;1.64;78.45;98878.20;261301;1101;23562;-78
2020/12/15 16:54:41;;;;;;;115.03;53.57;;;;;;;1.53;78.37;98877.12;261436;1101;23419;-77
2020/12/15 16:59:43;;;;;;;128.23;56.73;;;;;;;1.52;79.31;98867.59;261866;1101;23823;-77
2020/12/15 17:04:51;;;;;;;125.53;53.63;;;;;;;1.51;79.31;98879.20;261218;1101;23379;-77
2020/12/15 17:09:53;;;;;;;128.30;54.00;;;;;;;1.49;78.98;98877.82;261426;1102;23533;-77
2020/12/15 17:14:58;;;;;;;127.17;54.30;;;;;;;1.53;79.45;98881.62;261424;1103;23361;-77
2020/12/15 17:20:01;;;;;;;130.83;55.53;;;;;;;1.57;79.73;98877.50;261572;1101;23466;-77
2020/12/15 17:25:03;;;;;;;138.93;59.00;;;;;;;1.54;79.09;98876.11;261450;1101;23428;-78
2020/12/15 17:30:07;;;;;;;146.67;60.53;;;;;;;1.53;79.50;98881.62;261269;1103;23365;-79
2020/12/15 17:35:10;;;;;;;126.57;56.10;;;;;;;1.56;79.17;98883.01;261855;1101;23648;-77
2020/12/15 17:40:13;;;;;;;140.83;63.03;;;;;;;1.56;79.37;98881.16;262489;1102;23408;-77
2020/12/15 17:45:16;;;;;;;136.90;62.20;;;;;;;1.51;78.98;98887.13;261340;1102;23976;-77
2020/12/15 17:50:18;;;;;;;126.67;53.63;;;;;;;1.37;79.49;98880.41;260979;1104;23372;-77
2020/12/15 17:55:22;;;;;;;118.47;52.10;;;;;;;1.27;79.19;98880.16;261581;1101;23357;-78
2020/12/15 18:00:24;;;;;;;109.63;48.80;;;;;;;1.21;79.08;98892.42;261396;1102;23389;-79
2020/12/15 18:05:27;;;;;;;104.20;45.03;;;;;;;1.20;79.10;98893.44;261644;1102;23407;-75
2020/12/15 18:10:30;;;;;;;82.13;35.93;;;;;;;1.21;80.11;98905.62;261869;1101;23423;-77
2020/12/15 18:15:33;;;;;;;63.00;28.60;;;;;;;1.25;80.12;98911.27;261785;1101;23306;-79
2020/12/15 18:20:43;;;;;;;49.00;22.00;;;;;;;1.31;80.75;98903.23;261648;1101;23415;-78
2020/12/15 18:25:51;;;;;;;46.83;20.07;;;;;;;1.34;80.92;98907.27;262001;1101;23365;-77
2020/12/15 18:30:58;;;;;;;43.03;20.60;;;;;;;1.36;79.95;98913.94;261509;1101;23365;-77
2020/12/15 18:36:01;;;;;;;36.40;17.30;;;;;;;1.41;80.75;98910.61;261514;1101;23363;-77
2020/12/15 18:41:03;;;;;;;30.53;14.77;;;;;;;1.40;80.76;98914.30;261369;1101;23360;-78
2020/12/15 18:46:11;;;;;;;30.50;13.97;;;;;;;1.40;80.01;98919.58;261467;1101;23330;-77
2020/12/15 18:51:24;;;;;;;28.13;13.83;;;;;;;1.41;80.15;98910.61;261359;1101;23991;-78
2020/12/15 18:56:31;;;;;;;27.67;12.60;;;;;;;1.44;80.65;98907.55;261540;1102;23350;-76
2020/12/15 19:01:39;;;;;;;31.40;14.50;;;;;;;1.49;80.41;98925.34;261314;1101;23350;-77
2020/12/15 19:06:46;;;;;;;28.30;12.37;;;;;;;1.54;80.32;98925.48;261528;1101;23515;-77
2020/12/15 19:11:53;;;;;;;25.70;12.20;;;;;;;1.60;80.40;98926.42;261575;1101;23411;-78
2020/12/15 19:17:00;;;;;;;26.45;13.05;;;;;;;1.64;80.14;98920.45;261536;1101;23414;-78
2020/12/15 19:22:08;;;;;;;24.87;12.53;;;;;;;1.71;81.03;98926.43;261549;1101;23407;-77
2020/12/15 19:27:15;;;;;;;28.27;14.10;;;;;;;1.75;80.09;98928.61;261673;1101;23391;-79
2020/12/15 19:32:23;;;;;;;25.10;12.45;;;;;;;1.75;80.50;98929.44;261360;1101;23419;-78
2020/12/15 19:37:35;;;;;;;24.47;12.30;;;;;;;1.78;79.95;98931.62;261368;1101;23811;-77
2020/12/15 19:42:42;;;;;;;26.73;12.80;;;;;;;1.84;80.59;98935.19;261309;1102;23355;-77
2020/12/15 19:47:54;;;;;;;19.90;10.10;;;;;;;1.84;80.25;98924.63;261663;1101;23407;-77
2020/12/15 19:53:01;;;;;;;18.17;8.53;;;;;;;1.80;80.16;98936.67;261411;1101;23407;-78
2020/12/15 19:58:09;;;;;;;17.25;9.75;;;;;;;1.76;80.18;98931.02;261632;1101;23419;-78
2020/12/15 20:03:15;;;;;;;18.53;9.60;;;;;;;1.77;80.52;98937.13;261708;1102;23441;-77
2020/12/15 20:08:25;;;;;;;14.07;7.90;;;;;;;1.76;80.01;98946.08;261513;1102;23434;-77
2020/12/15 20:13:32;;;;;;;15.95;7.65;;;;;;;1.78;80.02;98942.19;261305;1101;23376;-77
2020/12/15 20:18:39;;;;;;;14.13;7.57;;;;;;;1.81;80.22;98956.78;261370;1102;24807;-77
2020/12/15 20:23:47;;;;;;;14.80;7.80;;;;;;;1.82;80.20;98945.98;261308;1101;23398;-78
2020/12/15 20:28:56;;;;;;;12.00;7.47;;;;;;;1.85;80.49;98958.73;261348;1101;23533;-78
2020/12/15 20:34:05;;;;;;;11.50;6.67;;;;;;;1.86;79.89;98967.45;261388;1101;23464;-77
2020/12/15 20:39:13;;;;;;;13.47;7.60;;;;;;;1.88;80.15;98968.84;261426;1101;23559;-77
2020/12/15 20:44:15;;;;;;;14.20;7.35;;;;;;;1.93;80.05;98967.36;261370;1101;23365;-76
2020/12/15 20:49:24;;;;;;;15.93;7.87;;;;;;;1.90;79.69;98970.46;261435;1101;23383;-77
2020/12/15 20:54:35;;;;;;;11.90;7.33;;;;;;;1.88;80.25;98958.27;261260;1101;23517;-77
2020/12/15 20:59:37;;;;;;;11.65;6.80;;;;;;;1.90;79.87;98970.46;261513;1101;23886;-77
2020/12/15 21:04:45;;;;;;;12.20;6.63;;;;;;;1.88;79.82;98974.13;261239;1101;23333;-76
2020/12/15 21:09:52;;;;;;;12.65;7.40;;;;;;;1.90;80.44;98978.39;261250;1102;23412;-78
2020/12/15 21:14:59;;;;;;;12.90;7.13;;;;;;;1.90;80.10;98978.39;261192;1101;23362;-78
2020/12/15 21:20:06;;;;;;;11.87;7.57;;;;;;;1.89;79.82;98977.59;261250;1101;23411;-77
2020/12/15 21:25:13;;;;;;;13.50;7.70;;;;;;;1.87;80.76;98990.20;261236;1103;23360;-76
2020/12/15 21:30:20;;;;;;;11.30;6.20;;;;;;;1.86;79.83;98989.41;260915;1104;23388;-78
2020/12/15 21:35:28;;;;;;;14.57;7.37;;;;;;;1.86;79.83;98985.95;261270;1101;23350;-77
2020/12/15 21:40:31;;;;;;;11.63;6.90;;;;;;;1.84;80.45;98998.59;261538;1101;23447;-76
2020/12/15 21:45:41;;;;;;;;;;;;;;;1.83;80.54;99003.08;261362;1101;23345;-77
2020/12/15 21:50:43;;;;;;;11.60;6.87;;;;;;;1.84;80.28;98998.59;261369;1102;21524;-77
2020/12/15 21:55:45;;;;;;;9.35;6.00;;;;;;;1.83;80.30;99002.25;260967;1104;26815;-77
2020/12/15 22:00:50;;;;;;;12.80;7.30;;;;;;;1.83;80.76;99005.72;261259;1101;23879;-77
2020/12/15 22:05:52;;;;;;;13.57;7.00;;;;;;;1.84;80.33;98993.31;261284;1101;26514;-77
2020/12/15 22:10:54;;;;;;;10.03;5.83;;;;;;;1.85;80.06;99000.21;261373;1101;23418;-76
2020/12/15 22:15:56;;;;;;;11.57;6.77;;;;;;;1.87;80.09;98995.48;261293;1101;26516;-77
2020/12/15 22:20:58;;;;;;;11.25;6.25;;;;;;;1.85;80.48;99005.49;261350;1101;23356;-76
2020/12/15 22:26:00;;;;;;;11.07;6.23;;;;;;;1.86;80.67;98996.52;261637;1101;23368;-77
2020/12/15 22:31:07;;;;;;;13.27;6.43;;;;;;;1.88;80.28;99015.60;261393;1103;23365;-76
2020/12/15 22:36:11;;;;;;;11.67;5.53;;;;;;;1.87;80.14;99016.63;261436;1102;23358;-76
2020/12/15 22:41:14;;;;;;;11.65;5.95;;;;;;;1.85;80.42;99008.93;261325;1102;23453;-76
2020/12/15 22:46:17;;;;;;;12.20;6.47;;;;;;;1.87;80.77;99016.63;261470;1101;27738;-76
2020/12/15 22:51:19;;;;;;;10.50;6.00;;;;;;;1.87;80.62;99006.88;261351;1102;23374;-77
2020/12/15 22:56:22;;;;;;;13.23;6.50;;;;;;;1.86;80.88;98997.34;261310;1101;23366;-76
2020/12/15 23:01:23;;;;;;;11.03;6.27;;;;;;;1.86;80.79;98997.34;261640;1101;23558;-76
2020/12/15 23:06:28;;;;;;;11.20;5.67;;;;;;;1.85;80.64;98995.72;261293;1101;23355;-76
2020/12/15 23:11:33;;;;;;;9.80;5.57;;;;;;;1.83;81.24;98992.52;261415;1101;23453;-77
2020/12/15 23:16:36;;;;;;;9.40;5.40;;;;;;;1.83;81.04;99005.72;261661;1101;23381;-77
2020/12/15 23:21:38;;;;;;;9.93;5.57;;;;;;;1.83;81.22;99015.46;261338;1102;23365;-77